sensor_id;sensor_type;location;lat;lon;timestamp;pressure;altitude;pressure_sealevel;temperature;humidity
44351;BME280;62766;62.622;17.912;2023-05-25T00:02:24;100840.52;;;10.27;53.57
44351;BME280;62766;62.622;17.912;2023-05-25T00:04:52;100837.09;;;10.33;53.24
44351;BME280;62766;62.622;17.912;2023-05-25T00:07:20;100837.36;;;10.40;52.99
44351;BME280;62766;62.622;17.912;2023-05-25T00:09:48;100838.74;;;10.37;52.83
44351;BME280;62766;62.622;17.912;2023-05-25T00:12:17;100837.89;;;10.48;52.22
44351;BME280;62766;62.622;17.912;2023-05-25T00:14:45;100836.58;;;10.49;51.70
44351;BME280;62766;62.622;17.912;2023-05-25T00:17:13;100839.00;;;10.53;51.40
44351;BME280;62766;62.622;17.912;2023-05-25T00:19:41;100838.90;;;10.51;51.53
44351;BME280;62766;62.622;17.912;2023-05-25T00:22:10;100838.55;;;10.52;50.89
44351;BME280;62766;62.622;17.912;2023-05-25T00:24:39;100847.00;;;10.68;50.96
44351;BME280;62766;62.622;17.912;2023-05-25T00:27:08;100850.05;;;10.64;50.73
44351;BME280;62766;62.622;17.912;2023-05-25T00:29:36;100847.82;;;10.65;50.60
44351;BME280;62766;62.622;17.912;2023-05-25T00:32:05;100848.13;;;10.68;50.49
44351;BME280;62766;62.622;17.912;2023-05-25T00:34:34;100851.09;;;10.73;50.50
44351;BME280;62766;62.622;17.912;2023-05-25T00:37:03;100854.39;;;10.85;50.56
44351;BME280;62766;62.622;17.912;2023-05-25T00:39:31;100862.35;;;10.80;49.27
44351;BME280;62766;62.622;17.912;2023-05-25T00:42:01;100864.83;;;10.62;49.94
44351;BME280;62766;62.622;17.912;2023-05-25T00:44:29;100860.51;;;10.63;48.52
44351;BME280;62766;62.622;17.912;2023-05-25T00:46:58;100864.42;;;10.56;48.83
44351;BME280;62766;62.622;17.912;2023-05-25T00:49:27;100870.26;;;10.64;48.83
44351;BME280;62766;62.622;17.912;2023-05-25T00:51:57;100870.58;;;10.59;48.40
44351;BME280;62766;62.622;17.912;2023-05-25T00:54:26;100870.93;;;10.50;47.78
44351;BME280;62766;62.622;17.912;2023-05-25T00:56:59;100869.18;;;10.44;48.15
44351;BME280;62766;62.622;17.912;2023-05-25T00:59:31;100863.85;;;10.49;48.06
44351;BME280;62766;62.622;17.912;2023-05-25T01:02:02;100863.43;;;10.39;47.64
44351;BME280;62766;62.622;17.912;2023-05-25T01:04:33;100863.82;;;10.40;47.73
44351;BME280;62766;62.622;17.912;2023-05-25T01:07:06;100868.56;;;10.30;47.49
44351;BME280;62766;62.622;17.912;2023-05-25T01:09:38;100867.02;;;10.26;47.77
44351;BME280;62766;62.622;17.912;2023-05-25T01:12:08;100865.13;;;10.20;47.52
44351;BME280;62766;62.622;17.912;2023-05-25T01:14:38;100871.16;;;10.34;47.12
44351;BME280;62766;62.622;17.912;2023-05-25T01:17:08;100870.97;;;10.33;47.11
44351;BME280;62766;62.622;17.912;2023-05-25T01:19:37;100871.20;;;10.26;47.41
44351;BME280;62766;62.622;17.912;2023-05-25T01:22:12;100873.01;;;10.21;46.98
44351;BME280;62766;62.622;17.912;2023-05-25T01:24:46;100878.94;;;10.39;47.52
44351;BME280;62766;62.622;17.912;2023-05-25T01:27:21;100882.07;;;10.31;47.54
44351;BME280;62766;62.622;17.912;2023-05-25T01:29:52;100883.60;;;10.16;47.41
44351;BME280;62766;62.622;17.912;2023-05-25T01:32:23;100887.79;;;10.20;47.51
44351;BME280;62766;62.622;17.912;2023-05-25T01:34:53;100891.88;;;10.15;47.59
44351;BME280;62766;62.622;17.912;2023-05-25T01:37:23;100896.41;;;10.07;47.56
44351;BME280;62766;62.622;17.912;2023-05-25T01:39:51;100901.94;;;10.04;47.61
44351;BME280;62766;62.622;17.912;2023-05-25T01:42:19;100904.01;;;10.11;47.74
44351;BME280;62766;62.622;17.912;2023-05-25T01:44:48;100906.93;;;9.97;47.70
44351;BME280;62766;62.622;17.912;2023-05-25T01:47:22;100910.21;;;10.03;47.69
44351;BME280;62766;62.622;17.912;2023-05-25T01:49:57;100915.91;;;10.11;47.68
44351;BME280;62766;62.622;17.912;2023-05-25T01:52:30;100919.70;;;10.03;47.76
44351;BME280;62766;62.622;17.912;2023-05-25T01:55:03;100925.16;;;10.06;47.66
44351;BME280;62766;62.622;17.912;2023-05-25T01:57:35;100925.01;;;9.91;47.64
44351;BME280;62766;62.622;17.912;2023-05-25T02:00:05;100925.69;;;9.90;47.55
44351;BME280;62766;62.622;17.912;2023-05-25T02:02:36;100916.49;;;9.93;47.61
44351;BME280;62766;62.622;17.912;2023-05-25T02:05:06;100925.16;;;9.95;47.61
44351;BME280;62766;62.622;17.912;2023-05-25T02:07:35;100924.76;;;9.99;47.61
44351;BME280;62766;62.622;17.912;2023-05-25T02:10:05;100926.80;;;10.08;47.29
44351;BME280;62766;62.622;17.912;2023-05-25T02:12:34;100927.90;;;10.03;46.94
44351;BME280;62766;62.622;17.912;2023-05-25T02:15:03;100928.39;;;10.18;47.36
44351;BME280;62766;62.622;17.912;2023-05-25T02:17:32;100925.87;;;10.04;46.99
44351;BME280;62766;62.622;17.912;2023-05-25T02:20:00;100929.00;;;10.23;47.08
44351;BME280;62766;62.622;17.912;2023-05-25T02:22:28;100931.16;;;10.13;47.24
44351;BME280;62766;62.622;17.912;2023-05-25T02:24:57;100935.78;;;10.13;45.64
44351;BME280;62766;62.622;17.912;2023-05-25T02:27:25;100939.88;;;10.17;45.75
44351;BME280;62766;62.622;17.912;2023-05-25T02:29:54;100947.03;;;10.11;45.32
44351;BME280;62766;62.622;17.912;2023-05-25T02:32:22;100948.44;;;10.08;44.59
44351;BME280;62766;62.622;17.912;2023-05-25T02:34:50;100944.88;;;10.05;44.89
44351;BME280;62766;62.622;17.912;2023-05-25T02:37:18;100950.68;;;10.00;45.07
44351;BME280;62766;62.622;17.912;2023-05-25T02:39:46;100958.82;;;10.02;44.53
44351;BME280;62766;62.622;17.912;2023-05-25T02:42:15;100964.98;;;9.82;44.69
44351;BME280;62766;62.622;17.912;2023-05-25T02:44:43;100963.83;;;9.80;45.18
44351;BME280;62766;62.622;17.912;2023-05-25T02:47:11;100964.38;;;9.93;45.44
44351;BME280;62766;62.622;17.912;2023-05-25T02:49:40;100962.59;;;9.84;44.60
44351;BME280;62766;62.622;17.912;2023-05-25T02:52:08;100961.66;;;9.89;44.60
44351;BME280;62766;62.622;17.912;2023-05-25T02:54:36;100962.10;;;9.80;44.67
44351;BME280;62766;62.622;17.912;2023-05-25T02:57:05;100965.83;;;9.85;44.67
44351;BME280;62766;62.622;17.912;2023-05-25T02:59:33;100970.64;;;9.78;44.82
44351;BME280;62766;62.622;17.912;2023-05-25T03:02:01;100968.13;;;9.63;44.48
44351;BME280;62766;62.622;17.912;2023-05-25T03:04:29;100974.54;;;9.83;44.63
44351;BME280;62766;62.622;17.912;2023-05-25T03:06:58;100980.17;;;9.73;44.91
44351;BME280;62766;62.622;17.912;2023-05-25T03:09:26;100983.68;;;9.61;44.83
44351;BME280;62766;62.622;17.912;2023-05-25T03:11:55;100981.29;;;9.70;44.06
44351;BME280;62766;62.622;17.912;2023-05-25T03:14:24;100983.57;;;9.73;44.16
44351;BME280;62766;62.622;17.912;2023-05-25T03:16:53;100989.04;;;9.68;44.46
44351;BME280;62766;62.622;17.912;2023-05-25T03:19:21;100990.87;;;9.79;44.51
44351;BME280;62766;62.622;17.912;2023-05-25T03:21:49;100994.83;;;9.82;44.29
44351;BME280;62766;62.622;17.912;2023-05-25T03:24:17;100998.23;;;9.65;44.51
44351;BME280;62766;62.622;17.912;2023-05-25T03:26:46;100998.39;;;9.70;44.38
44351;BME280;62766;62.622;17.912;2023-05-25T03:29:14;101001.00;;;9.73;44.47
44351;BME280;62766;62.622;17.912;2023-05-25T03:31:42;101004.72;;;9.86;45.10
44351;BME280;62766;62.622;17.912;2023-05-25T03:34:11;101007.49;;;9.97;45.09
44351;BME280;62766;62.622;17.912;2023-05-25T03:36:39;101008.14;;;9.99;44.69
44351;BME280;62766;62.622;17.912;2023-05-25T03:39:07;101007.40;;;10.22;44.59
44351;BME280;62766;62.622;17.912;2023-05-25T03:41:35;101010.66;;;10.16;44.79
44351;BME280;62766;62.622;17.912;2023-05-25T03:44:04;101012.38;;;10.25;44.26
44351;BME280;62766;62.622;17.912;2023-05-25T03:46:32;101016.17;;;10.20;44.05
44351;BME280;62766;62.622;17.912;2023-05-25T03:49:00;101017.83;;;10.23;44.26
44351;BME280;62766;62.622;17.912;2023-05-25T03:51:29;101018.57;;;10.42;44.90
44351;BME280;62766;62.622;17.912;2023-05-25T03:53:57;101017.14;;;10.52;44.29
44351;BME280;62766;62.622;17.912;2023-05-25T03:56:25;101016.46;;;10.59;44.24
44351;BME280;62766;62.622;17.912;2023-05-25T03:58:53;101021.29;;;10.65;43.77
44351;BME280;62766;62.622;17.912;2023-05-25T04:03:21;101035.47;;;10.58;43.85
44351;BME280;62766;62.622;17.912;2023-05-25T04:05:49;101037.40;;;10.64;43.98
44351;BME280;62766;62.622;17.912;2023-05-25T04:08:17;101037.89;;;10.67;43.97
44351;BME280;62766;62.622;17.912;2023-05-25T04:10:46;101045.70;;;10.72;44.02
44351;BME280;62766;62.622;17.912;2023-05-25T04:13:15;101043.99;;;10.82;43.77
44351;BME280;62766;62.622;17.912;2023-05-25T04:15:44;101050.27;;;10.78;43.91
44351;BME280;62766;62.622;17.912;2023-05-25T04:18:13;101054.57;;;10.95;43.76
44351;BME280;62766;62.622;17.912;2023-05-25T04:20:44;101051.32;;;11.03;43.15
44351;BME280;62766;62.622;17.912;2023-05-25T04:23:13;101055.92;;;10.99;43.02
44351;BME280;62766;62.622;17.912;2023-05-25T04:25:42;101056.73;;;11.05;42.67
44351;BME280;62766;62.622;17.912;2023-05-25T04:28:10;101053.54;;;10.96;42.27
44351;BME280;62766;62.622;17.912;2023-05-25T04:30:39;101057.19;;;11.12;42.69
44351;BME280;62766;62.622;17.912;2023-05-25T04:33:08;101061.39;;;10.94;42.45
44351;BME280;62766;62.622;17.912;2023-05-25T04:35:37;101059.35;;;11.14;42.88
44351;BME280;62766;62.622;17.912;2023-05-25T04:38:05;101063.75;;;11.17;42.12
44351;BME280;62766;62.622;17.912;2023-05-25T04:40:33;101064.50;;;11.18;42.44
44351;BME280;62766;62.622;17.912;2023-05-25T04:43:02;101067.48;;;11.20;42.19
44351;BME280;62766;62.622;17.912;2023-05-25T04:45:30;101067.02;;;11.27;41.84
44351;BME280;62766;62.622;17.912;2023-05-25T04:47:58;101060.85;;;11.31;40.94
44351;BME280;62766;62.622;17.912;2023-05-25T04:50:26;101061.61;;;11.15;40.72
44351;BME280;62766;62.622;17.912;2023-05-25T04:52:56;101056.72;;;11.21;40.77
44351;BME280;62766;62.622;17.912;2023-05-25T04:55:25;101056.48;;;11.24;40.23
44351;BME280;62766;62.622;17.912;2023-05-25T04:57:53;101053.74;;;11.35;40.25
44351;BME280;62766;62.622;17.912;2023-05-25T05:00:21;101045.69;;;11.39;40.42
44351;BME280;62766;62.622;17.912;2023-05-25T05:02:49;101038.88;;;11.40;38.74
44351;BME280;62766;62.622;17.912;2023-05-25T05:05:18;101038.65;;;11.35;39.46
44351;BME280;62766;62.622;17.912;2023-05-25T05:07:46;101031.51;;;11.48;39.14
44351;BME280;62766;62.622;17.912;2023-05-25T05:10:15;101034.98;;;11.50;38.70
44351;BME280;62766;62.622;17.912;2023-05-25T05:12:42;101036.19;;;11.61;38.05
44351;BME280;62766;62.622;17.912;2023-05-25T05:15:11;101034.17;;;11.75;38.96
44351;BME280;62766;62.622;17.912;2023-05-25T05:17:39;101033.93;;;11.90;38.88
44351;BME280;62766;62.622;17.912;2023-05-25T05:20:08;101030.01;;;12.11;38.06
44351;BME280;62766;62.622;17.912;2023-05-25T05:22:37;101030.24;;;12.17;37.28
44351;BME280;62766;62.622;17.912;2023-05-25T05:25:06;101031.68;;;11.97;38.05
44351;BME280;62766;62.622;17.912;2023-05-25T05:27:35;101028.84;;;12.23;38.45
44351;BME280;62766;62.622;17.912;2023-05-25T05:30:06;101033.68;;;12.33;37.74
44351;BME280;62766;62.622;17.912;2023-05-25T05:32:33;101033.17;;;12.39;37.20
44351;BME280;62766;62.622;17.912;2023-05-25T05:35:02;101033.93;;;12.46;36.39
44351;BME280;62766;62.622;17.912;2023-05-25T05:37:30;101042.57;;;12.29;36.99
44351;BME280;62766;62.622;17.912;2023-05-25T05:39:58;101037.36;;;12.61;36.96
44351;BME280;62766;62.622;17.912;2023-05-25T05:42:26;101040.45;;;12.55;37.01
44351;BME280;62766;62.622;17.912;2023-05-25T05:44:55;101042.07;;;12.80;37.20
44351;BME280;62766;62.622;17.912;2023-05-25T05:47:23;101046.17;;;12.64;38.16
44351;BME280;62766;62.622;17.912;2023-05-25T05:49:51;101044.25;;;12.91;38.15
44351;BME280;62766;62.622;17.912;2023-05-25T05:52:19;101041.23;;;12.95;36.78
44351;BME280;62766;62.622;17.912;2023-05-25T05:54:48;101050.18;;;12.96;35.50
44351;BME280;62766;62.622;17.912;2023-05-25T05:57:16;101049.99;;;12.83;35.44
44351;BME280;62766;62.622;17.912;2023-05-25T05:59:44;101051.86;;;12.86;36.23
44351;BME280;62766;62.622;17.912;2023-05-25T06:02:13;101051.68;;;12.83;36.40
44351;BME280;62766;62.622;17.912;2023-05-25T06:04:42;101054.19;;;12.88;35.47
44351;BME280;62766;62.622;17.912;2023-05-25T06:07:10;101053.72;;;12.85;35.39
44351;BME280;62766;62.622;17.912;2023-05-25T06:09:39;101054.40;;;12.64;36.09
44351;BME280;62766;62.622;17.912;2023-05-25T06:12:08;101054.65;;;12.87;36.03
44351;BME280;62766;62.622;17.912;2023-05-25T06:14:36;101058.09;;;12.95;35.44
44351;BME280;62766;62.622;17.912;2023-05-25T06:17:04;101056.36;;;12.90;35.54
44351;BME280;62766;62.622;17.912;2023-05-25T06:19:32;101054.71;;;12.71;35.01
44351;BME280;62766;62.622;17.912;2023-05-25T06:22:00;101054.43;;;12.66;34.89
44351;BME280;62766;62.622;17.912;2023-05-25T06:24:29;101054.18;;;12.68;35.70
44351;BME280;62766;62.622;17.912;2023-05-25T06:26:57;101050.80;;;12.56;34.84
44351;BME280;62766;62.622;17.912;2023-05-25T06:29:26;101056.64;;;12.62;35.54
44351;BME280;62766;62.622;17.912;2023-05-25T06:31:54;101058.00;;;12.61;35.52
44351;BME280;62766;62.622;17.912;2023-05-25T06:34:22;101046.89;;;12.58;36.46
44351;BME280;62766;62.622;17.912;2023-05-25T06:36:50;101043.89;;;12.78;36.27
44351;BME280;62766;62.622;17.912;2023-05-25T06:39:19;101040.64;;;12.63;36.76
44351;BME280;62766;62.622;17.912;2023-05-25T06:41:47;101043.63;;;12.96;36.14
44351;BME280;62766;62.622;17.912;2023-05-25T06:44:15;101030.84;;;13.04;34.78
44351;BME280;62766;62.622;17.912;2023-05-25T06:46:44;101035.75;;;12.99;36.00
44351;BME280;62766;62.622;17.912;2023-05-25T06:49:12;101026.35;;;13.17;34.39
44351;BME280;62766;62.622;17.912;2023-05-25T06:51:42;101030.17;;;13.15;33.94
44351;BME280;62766;62.622;17.912;2023-05-25T06:54:10;101032.38;;;13.26;34.63
44351;BME280;62766;62.622;17.912;2023-05-25T06:56:38;101018.48;;;13.41;34.34
44351;BME280;62766;62.622;17.912;2023-05-25T06:59:06;101032.59;;;13.49;34.13
44351;BME280;62766;62.622;17.912;2023-05-25T07:01:35;101036.92;;;13.44;33.29
44351;BME280;62766;62.622;17.912;2023-05-25T07:04:03;101037.89;;;13.51;33.08
44351;BME280;62766;62.622;17.912;2023-05-25T07:06:31;101039.01;;;13.54;33.93
44351;BME280;62766;62.622;17.912;2023-05-25T07:08:59;101041.82;;;13.78;33.83
44351;BME280;62766;62.622;17.912;2023-05-25T07:11:28;101043.02;;;13.87;33.59
44351;BME280;62766;62.622;17.912;2023-05-25T07:13:56;101047.57;;;14.06;32.56
44351;BME280;62766;62.622;17.912;2023-05-25T07:16:24;101061.37;;;14.05;32.91
44351;BME280;62766;62.622;17.912;2023-05-25T07:18:52;101060.76;;;14.07;31.98
44351;BME280;62766;62.622;17.912;2023-05-25T07:21:20;101052.83;;;13.92;31.84
44351;BME280;62766;62.622;17.912;2023-05-25T07:23:49;101058.35;;;13.95;32.69
44351;BME280;62766;62.622;17.912;2023-05-25T07:26:17;101061.72;;;13.84;31.62
44351;BME280;62766;62.622;17.912;2023-05-25T07:28:45;101064.53;;;14.02;32.07
44351;BME280;62766;62.622;17.912;2023-05-25T07:31:15;101066.74;;;14.14;32.71
44351;BME280;62766;62.622;17.912;2023-05-25T07:33:44;101071.95;;;14.10;32.57
44351;BME280;62766;62.622;17.912;2023-05-25T07:36:13;101071.93;;;14.28;32.44
44351;BME280;62766;62.622;17.912;2023-05-25T07:38:42;101059.11;;;14.40;30.59
44351;BME280;62766;62.622;17.912;2023-05-25T07:41:10;101064.11;;;14.17;31.50
44351;BME280;62766;62.622;17.912;2023-05-25T07:43:38;101062.30;;;14.08;31.24
44351;BME280;62766;62.622;17.912;2023-05-25T07:46:07;101056.58;;;14.24;31.23
44351;BME280;62766;62.622;17.912;2023-05-25T07:48:35;101057.92;;;14.33;31.12
44351;BME280;62766;62.622;17.912;2023-05-25T07:51:03;101062.25;;;14.40;31.20
44351;BME280;62766;62.622;17.912;2023-05-25T07:53:31;101065.83;;;14.53;31.66
44351;BME280;62766;62.622;17.912;2023-05-25T07:56:00;101070.32;;;14.56;30.54
44351;BME280;62766;62.622;17.912;2023-05-25T07:58:28;101076.87;;;14.65;31.35
44351;BME280;62766;62.622;17.912;2023-05-25T08:00:56;101076.08;;;14.95;30.46
44351;BME280;62766;62.622;17.912;2023-05-25T08:03:24;101079.45;;;14.94;30.23
44351;BME280;62766;62.622;17.912;2023-05-25T08:05:52;101077.18;;;15.13;30.18
44351;BME280;62766;62.622;17.912;2023-05-25T08:08:21;101073.37;;;15.00;30.16
44351;BME280;62766;62.622;17.912;2023-05-25T08:10:49;101075.73;;;15.24;30.91
44351;BME280;62766;62.622;17.912;2023-05-25T08:13:17;101088.26;;;15.19;30.24
44351;BME280;62766;62.622;17.912;2023-05-25T08:15:46;101081.97;;;15.13;30.94
44351;BME280;62766;62.622;17.912;2023-05-25T08:18:15;101092.32;;;15.10;30.66
44351;BME280;62766;62.622;17.912;2023-05-25T08:20:43;101094.62;;;15.27;30.15
44351;BME280;62766;62.622;17.912;2023-05-25T08:23:13;101098.22;;;15.16;30.31
44351;BME280;62766;62.622;17.912;2023-05-25T08:25:42;101097.49;;;15.23;28.64
44351;BME280;62766;62.622;17.912;2023-05-25T08:28:10;101095.56;;;15.25;27.92
44351;BME280;62766;62.622;17.912;2023-05-25T08:30:38;101111.55;;;15.01;28.83
44351;BME280;62766;62.622;17.912;2023-05-25T08:33:06;101120.60;;;14.94;28.35
44351;BME280;62766;62.622;17.912;2023-05-25T08:35:34;101122.04;;;14.88;28.23
44351;BME280;62766;62.622;17.912;2023-05-25T08:38:03;101119.87;;;14.91;29.64
44351;BME280;62766;62.622;17.912;2023-05-25T08:40:31;101128.06;;;14.98;29.61
44351;BME280;62766;62.622;17.912;2023-05-25T08:42:59;101124.71;;;15.10;29.35
44351;BME280;62766;62.622;17.912;2023-05-25T08:45:27;101123.70;;;15.15;29.39
44351;BME280;62766;62.622;17.912;2023-05-25T08:47:57;101116.91;;;15.32;28.61
44351;BME280;62766;62.622;17.912;2023-05-25T08:50:26;101123.74;;;15.13;30.23
44351;BME280;62766;62.622;17.912;2023-05-25T08:52:54;101119.77;;;15.29;29.28
44351;BME280;62766;62.622;17.912;2023-05-25T08:55:26;101123.71;;;15.49;30.17
44351;BME280;62766;62.622;17.912;2023-05-25T08:58:04;101120.87;;;15.77;28.66
44351;BME280;62766;62.622;17.912;2023-05-25T09:00:37;101127.32;;;15.65;27.97
44351;BME280;62766;62.622;17.912;2023-05-25T09:03:12;101130.74;;;15.64;27.79
44351;BME280;62766;62.622;17.912;2023-05-25T09:05:42;101126.32;;;15.61;27.84
44351;BME280;62766;62.622;17.912;2023-05-25T09:08:11;101133.46;;;15.68;28.15
44351;BME280;62766;62.622;17.912;2023-05-25T09:10:42;101123.70;;;15.80;27.24
44351;BME280;62766;62.622;17.912;2023-05-25T09:13:11;101123.45;;;15.75;26.83
44351;BME280;62766;62.622;17.912;2023-05-25T09:15:40;101123.82;;;15.64;27.48
44351;BME280;62766;62.622;17.912;2023-05-25T09:18:09;101132.94;;;15.63;28.26
44351;BME280;62766;62.622;17.912;2023-05-25T09:20:37;101142.11;;;15.72;29.07
44351;BME280;62766;62.622;17.912;2023-05-25T09:23:05;101135.81;;;15.89;27.45
44351;BME280;62766;62.622;17.912;2023-05-25T09:25:34;101136.06;;;15.94;27.39
44351;BME280;62766;62.622;17.912;2023-05-25T09:28:07;101130.96;;;16.19;27.42
44351;BME280;62766;62.622;17.912;2023-05-25T09:30:35;101127.26;;;16.39;27.65
44351;BME280;62766;62.622;17.912;2023-05-25T09:33:11;101149.88;;;16.21;27.17
44351;BME280;62766;62.622;17.912;2023-05-25T09:35:40;101148.77;;;16.04;26.72
44351;BME280;62766;62.622;17.912;2023-05-25T09:38:12;101143.37;;;15.99;26.21
44351;BME280;62766;62.622;17.912;2023-05-25T09:40:41;101139.65;;;16.41;26.72
44351;BME280;62766;62.622;17.912;2023-05-25T09:43:11;101146.59;;;16.45;27.17
44351;BME280;62766;62.622;17.912;2023-05-25T09:45:40;101156.47;;;16.64;25.87
44351;BME280;62766;62.622;17.912;2023-05-25T09:48:09;101155.30;;;16.58;26.22
44351;BME280;62766;62.622;17.912;2023-05-25T09:50:38;101144.46;;;16.77;26.19
44351;BME280;62766;62.622;17.912;2023-05-25T09:53:07;101144.89;;;16.90;26.20
44351;BME280;62766;62.622;17.912;2023-05-25T09:55:36;101143.53;;;16.99;25.56
44351;BME280;62766;62.622;17.912;2023-05-25T09:58:05;101145.43;;;16.91;25.81
44351;BME280;62766;62.622;17.912;2023-05-25T10:03:20;101141.65;;;16.35;26.74
44351;BME280;62766;62.622;17.912;2023-05-25T10:05:48;101150.12;;;16.44;27.65
44351;BME280;62766;62.622;17.912;2023-05-25T10:08:18;101146.74;;;16.86;26.71
44351;BME280;62766;62.622;17.912;2023-05-25T10:10:47;101149.99;;;16.93;25.76
44351;BME280;62766;62.622;17.912;2023-05-25T10:13:20;101154.04;;;17.03;26.38
44351;BME280;62766;62.622;17.912;2023-05-25T10:15:51;101144.30;;;17.19;25.94
44351;BME280;62766;62.622;17.912;2023-05-25T10:18:24;101143.06;;;17.21;26.08
44351;BME280;62766;62.622;17.912;2023-05-25T10:20:59;101154.42;;;17.42;25.98
44351;BME280;62766;62.622;17.912;2023-05-25T10:23:34;101151.01;;;17.44;25.74
44351;BME280;62766;62.622;17.912;2023-05-25T10:26:05;101161.27;;;17.42;25.99
44351;BME280;62766;62.622;17.912;2023-05-25T10:28:35;101150.78;;;17.31;25.42
44351;BME280;62766;62.622;17.912;2023-05-25T10:31:05;101147.35;;;17.34;25.57
44351;BME280;62766;62.622;17.912;2023-05-25T10:33:36;101147.18;;;17.50;25.36
44351;BME280;62766;62.622;17.912;2023-05-25T10:36:05;101155.96;;;17.68;24.83
44351;BME280;62766;62.622;17.912;2023-05-25T10:38:34;101146.04;;;17.69;24.36
44351;BME280;62766;62.622;17.912;2023-05-25T10:41:04;101148.48;;;17.48;24.45
44351;BME280;62766;62.622;17.912;2023-05-25T10:43:34;101151.41;;;17.33;24.19
44351;BME280;62766;62.622;17.912;2023-05-25T10:46:04;101163.62;;;17.52;25.82
44351;BME280;62766;62.622;17.912;2023-05-25T10:48:35;101158.21;;;17.49;25.31
44351;BME280;62766;62.622;17.912;2023-05-25T10:51:04;101152.60;;;17.51;24.15
44351;BME280;62766;62.622;17.912;2023-05-25T10:53:34;101153.21;;;17.63;25.21
44351;BME280;62766;62.622;17.912;2023-05-25T10:56:03;101148.11;;;17.99;23.79
44351;BME280;62766;62.622;17.912;2023-05-25T10:58:32;101149.40;;;18.29;24.99
44351;BME280;62766;62.622;17.912;2023-05-25T11:01:01;101153.28;;;18.06;22.60
44351;BME280;62766;62.622;17.912;2023-05-25T11:04:35;101155.19;;;17.96;22.59
44351;BME280;62766;62.622;17.912;2023-05-25T11:07:06;101156.98;;;17.76;22.90
44351;BME280;62766;62.622;17.912;2023-05-25T11:09:40;101149.79;;;18.05;23.53
44351;BME280;62766;62.622;17.912;2023-05-25T11:12:18;101145.48;;;17.85;22.59
44351;BME280;62766;62.622;17.912;2023-05-25T11:15:20;101160.67;;;17.80;22.68
44351;BME280;62766;62.622;17.912;2023-05-25T11:17:57;101149.84;;;17.79;23.53
44351;BME280;62766;62.622;17.912;2023-05-25T11:20:27;101142.68;;;17.86;22.77
44351;BME280;62766;62.622;17.912;2023-05-25T11:22:57;101156.88;;;18.05;23.80
44351;BME280;62766;62.622;17.912;2023-05-25T11:25:38;101148.45;;;18.15;23.16
44351;BME280;62766;62.622;17.912;2023-05-25T11:28:07;101163.79;;;18.35;23.90
44351;BME280;62766;62.622;17.912;2023-05-25T11:30:38;101161.40;;;18.53;22.65
44351;BME280;62766;62.622;17.912;2023-05-25T11:33:07;101156.94;;;18.78;22.98
44351;BME280;62766;62.622;17.912;2023-05-25T11:35:35;101150.58;;;18.87;22.94
44351;BME280;62766;62.622;17.912;2023-05-25T11:38:05;101147.53;;;18.85;23.15
44351;BME280;62766;62.622;17.912;2023-05-25T11:40:33;101159.72;;;19.00;23.32
44351;BME280;62766;62.622;17.912;2023-05-25T11:43:03;101156.88;;;18.30;22.52
44351;BME280;62766;62.622;17.912;2023-05-25T11:45:33;101165.55;;;17.85;23.44
44351;BME280;62766;62.622;17.912;2023-05-25T11:48:03;101176.06;;;17.53;23.51
44351;BME280;62766;62.622;17.912;2023-05-25T11:50:31;101177.89;;;16.94;23.38
44351;BME280;62766;62.622;17.912;2023-05-25T11:53:02;101186.91;;;16.69;23.93
44351;BME280;62766;62.622;17.912;2023-05-25T11:55:31;101172.62;;;16.78;24.12
44351;BME280;62766;62.622;17.912;2023-05-25T11:57:59;101174.71;;;17.46;25.14
44351;BME280;62766;62.622;17.912;2023-05-25T12:00:27;101165.63;;;17.73;24.02
44351;BME280;62766;62.622;17.912;2023-05-25T12:02:56;101161.94;;;18.31;23.27
44351;BME280;62766;62.622;17.912;2023-05-25T12:05:25;101164.67;;;18.54;23.89
44351;BME280;62766;62.622;17.912;2023-05-25T12:08:04;101164.69;;;18.48;22.33
44351;BME280;62766;62.622;17.912;2023-05-25T12:10:32;101167.37;;;18.34;23.51
44351;BME280;62766;62.622;17.912;2023-05-25T12:13:00;101163.83;;;18.11;22.43
44351;BME280;62766;62.622;17.912;2023-05-25T12:15:30;101165.13;;;17.71;23.39
44351;BME280;62766;62.622;17.912;2023-05-25T12:17:58;101158.27;;;17.84;23.58
44351;BME280;62766;62.622;17.912;2023-05-25T12:20:26;101164.11;;;18.18;23.32
44351;BME280;62766;62.622;17.912;2023-05-25T12:22:54;101169.48;;;17.77;23.06
44351;BME280;62766;62.622;17.912;2023-05-25T12:25:23;101165.45;;;17.57;22.71
44351;BME280;62766;62.622;17.912;2023-05-25T12:28:08;101162.72;;;17.13;23.33
44351;BME280;62766;62.622;17.912;2023-05-25T12:30:36;101160.93;;;17.22;23.67
44351;BME280;62766;62.622;17.912;2023-05-25T12:33:05;101168.05;;;17.15;23.15
44351;BME280;62766;62.622;17.912;2023-05-25T12:35:43;101170.26;;;16.74;23.46
44351;BME280;62766;62.622;17.912;2023-05-25T12:38:13;101180.49;;;16.44;23.89
44351;BME280;62766;62.622;17.912;2023-05-25T12:40:41;101168.24;;;16.59;24.24
44351;BME280;62766;62.622;17.912;2023-05-25T12:43:10;101160.11;;;17.05;24.46
44351;BME280;62766;62.622;17.912;2023-05-25T12:45:40;101164.12;;;17.05;23.80
44351;BME280;62766;62.622;17.912;2023-05-25T12:48:10;101160.00;;;17.10;23.98
44351;BME280;62766;62.622;17.912;2023-05-25T12:50:55;101162.50;;;17.31;23.92
44351;BME280;62766;62.622;17.912;2023-05-25T12:53:25;101162.64;;;17.75;23.36
44351;BME280;62766;62.622;17.912;2023-05-25T12:56:00;101159.95;;;18.13;23.49
44351;BME280;62766;62.622;17.912;2023-05-25T12:58:28;101154.63;;;18.02;23.31